Pomona, Australia

8:42 AM AEDT on February 25, 2017 (GMT +1100)
Rural | | Change Station

Elev 171 ft 34.09 °S, 142.02 °E | Updated 27 seconds ago

Clear
Clear
56.7 °F
Feels Like 56.7 °F
N
4.9
Wind Variable Wind from South
Gusts 7.4 mph

Today
High -- | Low -- °F
--% Chance of Precip.
Yesterday
High -- | Low -- °F
Precip. -- in
Pressure 30.18 in
Visibility 6.2 miles
Clouds
Dew Point 51 °F
Humidity 81%
Rainfall 0.00 in
Snow Depth Not available.
7:16 AM 8:13 PM
Waning Crescent, 3% visible
METAR YMIA 242100Z AUTO 18007KT 9999 // NCD 13/07 Q1022
Pressure 30.18 in
Visibility 6.2 miles
Clouds
Dew Point 51 °F
Humidity 81%
Rainfall 0.00 in
Snow Depth Not available.
7:16 AM 8:13 PM
Waning Crescent, 3% visible
METAR YMIA 242100Z AUTO 18007KT 9999 // NCD 13/07 Q1022

Get Your Daily Forecast Email!

Thanks for signing up!

Be on the lookout for a verification email in your inbox.

You'll start receiving the daily forecast at 8 AM.

×

10-Day Weather Forecast

×

Almanac

Astronomy

Feb. 25, 2017 Rise Set
Actual Time
Civil Twilight
Nautical Twilight
Astronomical Twilight
Moon
Length of Visible Light
Length of Day
Tomorrow will be .
, % of the Moon is Illuminated

Today's Extremes

Country Highs Country Lows

Community

WunderPhotos

Upload Photos

1,962,540 photos uploaded!

WunderBlog® & News

Nearby

Air Quality

  Air Quality AQ Index Pollutant
Not available.

Snow Depth

Station Depth Elevation

Earthquake Activity

City Distance Mag. Time & Date
Minimum magnitude displayed is 2.5.

Coastal Water Temperatures

Place Temperature

Stations

Nearby Weather Stations

Station Location Temp. Windchill Dew Point Humidity Wind Precip. Elev Updated Type